createdAt,value
2019-05-01T00:01:31.612Z,24.30
2019-05-01T00:04:01.683Z,24.55
2019-05-01T00:06:40.430Z,24.55
2019-05-01T00:09:10.570Z,23.22
2019-05-01T00:11:39.278Z,22.98
2019-05-01T00:14:09.117Z,23.47
2019-05-01T00:16:37.787Z,23.42
2019-05-01T00:19:06.266Z,21.70
2019-05-01T00:21:34.757Z,22.52
2019-05-01T00:24:03.177Z,23.60
2019-05-01T00:26:31.578Z,23.85
2019-05-01T00:28:59.989Z,23.83
2019-05-01T00:31:28.395Z,24.55
2019-05-01T00:33:56.832Z,24.05
2019-05-01T00:36:25.263Z,23.30
2019-05-01T00:38:53.654Z,23.32
2019-05-01T00:41:22.087Z,23.75
2019-05-01T00:43:50.682Z,25.00
2019-05-01T00:46:19.090Z,26.05
2019-05-01T00:48:47.479Z,24.95
2019-05-01T00:51:15.967Z,25.23
2019-05-01T00:53:44.374Z,23.90
2019-05-01T00:56:14.418Z,23.22
2019-05-01T00:58:44.470Z,23.70
2019-05-01T01:01:14.527Z,23.75
2019-05-01T01:03:42.954Z,23.35
2019-05-01T01:06:11.460Z,24.55
2019-05-01T01:08:39.886Z,24.05
2019-05-01T01:11:08.361Z,24.18
2019-05-01T01:13:36.766Z,23.57
2019-05-01T01:16:05.363Z,24.50
2019-05-01T01:18:33.765Z,23.57
2019-05-01T01:21:02.178Z,23.67
2019-05-01T01:23:30.570Z,24.43
2019-05-01T01:25:59.035Z,23.27
2019-05-01T01:28:27.458Z,22.75
2019-05-01T01:30:56.861Z,23.18
2019-05-01T01:33:25.583Z,23.47
2019-05-01T01:35:53.997Z,23.00
2019-05-01T01:38:22.622Z,23.45
2019-05-01T01:40:56.974Z,22.50
2019-05-01T01:43:27.078Z,20.88
2019-05-01T01:45:57.494Z,21.52
2019-05-01T01:48:25.986Z,21.48
2019-05-01T01:50:54.846Z,21.20
2019-05-01T01:53:24.022Z,21.37
2019-05-01T01:55:53.126Z,22.65
2019-05-01T01:58:22.930Z,20.10
2019-05-01T02:00:53.426Z,21.95
2019-05-01T02:03:23.482Z,19.98
2019-05-01T02:05:52.258Z,20.68
2019-05-01T02:08:20.663Z,19.45
2019-05-01T02:10:49.531Z,18.87
2019-05-01T02:13:18.082Z,19.75
2019-05-01T02:15:46.506Z,19.48
2019-05-01T02:18:15.074Z,18.90
2019-05-01T02:20:43.755Z,18.42
2019-05-01T02:23:12.182Z,18.95
2019-05-01T02:25:42.469Z,19.48
2019-05-01T02:28:12.510Z,19.82
2019-05-01T02:30:42.831Z,19.40
2019-05-01T02:33:12.195Z,19.20
2019-05-01T02:35:42.341Z,19.90
2019-05-01T02:38:12.589Z,20.35
2019-05-01T02:40:44.056Z,21.05
2019-05-01T02:43:15.911Z,20.77
2019-05-01T02:45:47.911Z,21.27
2019-05-01T02:48:19.526Z,20.55
2019-05-01T02:50:51.053Z,20.77
2019-05-01T02:53:21.114Z,20.52
2019-05-01T02:55:52.134Z,19.45
2019-05-01T02:58:20.785Z,19.27
2019-05-01T03:00:49.225Z,19.73
2019-05-01T03:03:17.740Z,19.40
2019-05-01T03:05:46.278Z,20.68
2019-05-01T03:08:14.709Z,20.12
2019-05-01T03:10:43.158Z,20.97
2019-05-01T03:13:11.686Z,21.68
2019-05-01T03:15:40.195Z,21.70
2019-05-01T03:18:10.239Z,22.42
2019-05-01T03:20:40.939Z,21.45
2019-05-01T03:23:11.761Z,22.87
2019-05-01T03:25:40.986Z,23.52
2019-05-01T03:28:09.557Z,22.13
2019-05-01T03:30:38.081Z,22.42
2019-05-01T03:33:06.669Z,23.85
2019-05-01T03:35:36.683Z,25.12
2019-05-01T03:38:05.623Z,26.20
2019-05-01T03:40:34.380Z,25.55
2019-05-01T03:43:02.947Z,27.50
2019-05-01T03:45:34.197Z,25.65
2019-05-01T03:48:01.740Z,25.80
2019-05-01T03:50:30.271Z,27.07
2019-05-01T03:52:58.876Z,26.00
2019-05-01T03:55:27.476Z,25.25
2019-05-01T03:57:57.212Z,25.05
2019-05-01T04:00:27.265Z,27.37
2019-05-01T04:02:57.474Z,27.55
2019-05-01T04:05:26.226Z,26.15
2019-05-01T04:07:54.702Z,24.32
2019-05-01T04:10:23.099Z,20.52
2019-05-01T04:12:51.643Z,19.70
2019-05-01T04:15:20.038Z,19.70
2019-05-01T04:17:50.455Z,21.25
2019-05-01T04:20:18.866Z,20.82
2019-05-01T04:22:47.936Z,20.77
2019-05-01T04:25:16.599Z,20.70
2019-05-01T04:27:46.931Z,18.67
2019-05-01T04:30:18.297Z,15.15
2019-05-01T04:32:52.571Z,13.55
2019-05-01T04:35:21.507Z,15.43
2019-05-01T04:37:50.533Z,15.40
2019-05-01T04:40:20.615Z,13.90
2019-05-01T04:42:49.096Z,15.65
2019-05-01T04:45:17.939Z,14.75
2019-05-01T04:47:46.518Z,14.55
2019-05-01T04:50:15.417Z,13.58
2019-05-01T04:52:43.855Z,13.58
2019-05-01T04:55:12.419Z,13.62
2019-05-01T04:57:41.667Z,12.03
2019-05-01T05:00:10.438Z,11.70
2019-05-01T05:02:40.762Z,11.45
2019-05-01T05:05:09.783Z,12.23
2019-05-01T05:07:38.278Z,10.30
2019-05-01T05:10:07.118Z,10.53
2019-05-01T05:12:37.430Z,10.88
2019-05-01T05:15:09.328Z,10.43
2019-05-01T05:17:37.760Z,10.32
2019-05-01T05:20:07.222Z,10.95
2019-05-01T05:22:35.700Z,10.72
2019-05-01T05:25:05.269Z,11.28
2019-05-01T05:27:34.246Z,11.38
2019-05-01T05:30:03.150Z,12.15
2019-05-01T05:32:33.974Z,11.88
2019-05-01T05:35:04.502Z,11.08
2019-05-01T05:37:36.491Z,12.15
2019-05-01T05:40:06.042Z,11.03
2019-05-01T05:42:34.519Z,11.85
2019-05-01T05:45:03.995Z,11.35
2019-05-01T05:47:32.758Z,11.85
2019-05-01T05:50:01.304Z,12.28
2019-05-01T05:52:32.996Z,12.25
2019-05-01T05:55:04.988Z,12.60
2019-05-01T05:57:36.587Z,10.55
2019-05-01T06:00:08.972Z,11.20
2019-05-01T06:02:41.122Z,11.70
2019-05-01T06:05:11.461Z,11.05
2019-05-01T06:07:44.698Z,11.20
2019-05-01T06:10:18.602Z,10.23
2019-05-01T06:12:48.628Z,10.18
2019-05-01T06:15:18.743Z,9.70
2019-05-01T06:17:48.786Z,13.43
2019-05-01T06:20:20.779Z,10.25
2019-05-01T06:22:50.936Z,10.05
2019-05-01T06:25:22.354Z,10.08
2019-05-01T06:27:51.395Z,10.85
2019-05-01T06:30:20.079Z,11.18
2019-05-01T06:32:48.519Z,11.20
2019-05-01T06:35:17.077Z,11.68
2019-05-01T06:37:48.593Z,11.35
2019-05-01T06:40:22.178Z,10.30
2019-05-01T06:42:50.102Z,10.78
2019-05-01T06:45:20.356Z,11.50
2019-05-01T06:47:52.394Z,10.30
2019-05-01T06:50:22.211Z,10.20
2019-05-01T06:52:51.355Z,8.50
2019-05-01T06:55:22.448Z,8.80
2019-05-01T06:57:50.797Z,8.65
2019-05-01T07:00:19.492Z,9.38
2019-05-01T07:02:50.153Z,10.00
2019-05-01T07:05:20.098Z,9.53
2019-05-01T07:07:53.258Z,10.48
2019-05-01T07:10:29.712Z,10.28
2019-05-01T07:12:49.646Z,9.93
2019-05-01T07:15:21.971Z,8.88
2019-05-01T07:17:52.047Z,8.15
2019-05-01T07:20:22.214Z,8.05
2019-05-01T07:22:50.951Z,8.43
2019-05-01T07:25:19.543Z,7.78
2019-05-01T07:27:48.119Z,7.70
2019-05-01T07:30:19.716Z,8.70
2019-05-01T07:32:48.941Z,9.00
2019-05-01T07:35:17.495Z,8.88
2019-05-01T07:37:46.143Z,8.38
2019-05-01T07:40:16.014Z,11.33
2019-05-01T07:42:48.230Z,9.60
2019-05-01T07:45:18.790Z,8.90
2019-05-01T07:47:49.223Z,9.10
2019-05-01T07:50:18.670Z,10.10
2019-05-01T07:52:51.766Z,9.78
2019-05-01T07:55:20.179Z,8.03
2019-05-01T07:57:49.175Z,9.55
2019-05-01T08:00:19.594Z,8.88
2019-05-01T08:02:47.994Z,9.10
2019-05-01T08:05:16.426Z,9.45
2019-05-01T08:07:44.904Z,9.78
2019-05-01T08:10:13.576Z,9.08
2019-05-01T08:12:44.860Z,8.45
2019-05-01T08:15:12.262Z,7.75
2019-05-01T08:17:42.338Z,8.80
2019-05-01T08:20:14.894Z,8.35
2019-05-01T08:22:42.755Z,8.05
2019-05-01T08:25:11.469Z,8.13
2019-05-01T08:27:41.543Z,8.88
2019-05-01T08:30:12.810Z,8.48
2019-05-01T08:32:44.109Z,8.78
2019-05-01T08:35:14.239Z,8.50
2019-05-01T08:37:42.650Z,9.20
2019-05-01T08:40:11.318Z,9.80
2019-05-01T08:42:42.693Z,8.68
2019-05-01T08:45:11.629Z,8.18
2019-05-01T08:47:41.698Z,7.70
2019-05-01T08:53:07.942Z,8.88
2019-05-01T08:55:39.963Z,9.08
2019-05-01T08:58:08.875Z,9.00
2019-05-01T09:00:41.070Z,8.90
2019-05-01T09:03:08.424Z,9.53
2019-05-01T09:05:37.314Z,9.88
2019-05-01T09:08:05.716Z,9.15
2019-05-01T09:10:34.141Z,9.30
2019-05-01T09:13:02.530Z,8.30
2019-05-01T09:15:31.117Z,8.10
2019-05-01T09:17:59.510Z,7.83
2019-05-01T09:20:28.438Z,8.08
2019-05-01T09:22:56.949Z,7.35
2019-05-01T09:25:30.869Z,7.70
2019-05-01T09:27:59.610Z,8.10
2019-05-01T09:30:30.566Z,8.40
2019-05-01T09:32:59.066Z,8.03
2019-05-01T09:35:27.502Z,8.45
2019-05-01T09:40:37.478Z,8.38
2019-05-01T09:43:05.950Z,7.62
2019-05-01T09:45:34.404Z,8.58
2019-05-01T09:48:03.174Z,8.20
2019-05-01T09:50:33.230Z,9.08
2019-05-01T09:53:03.353Z,7.80
2019-05-01T09:55:33.415Z,6.87
2019-05-01T09:58:02.936Z,6.67
2019-05-01T10:00:32.674Z,5.72
2019-05-01T10:03:01.139Z,5.70
2019-05-01T10:05:29.551Z,5.78
2019-05-01T10:08:00.064Z,6.33
2019-05-01T10:10:29.281Z,6.08
2019-05-01T10:12:58.555Z,4.87
2019-05-01T10:15:26.993Z,5.28
2019-05-01T10:17:55.409Z,4.70
2019-05-01T10:20:23.807Z,4.60
2019-05-01T10:22:52.217Z,4.55
2019-05-01T10:25:20.662Z,5.50
2019-05-01T10:27:52.931Z,5.25
2019-05-01T10:30:22.722Z,4.80
2019-05-01T10:32:57.275Z,4.90
2019-05-01T10:35:24.572Z,4.47
2019-05-01T10:37:53.008Z,5.40
2019-05-01T10:40:22.394Z,4.90
2019-05-01T10:45:33.313Z,4.40
2019-05-01T10:48:01.713Z,5.12
2019-05-01T10:50:30.135Z,4.70
2019-05-01T10:52:58.619Z,3.77
2019-05-01T10:55:27.050Z,3.33
2019-05-01T10:57:55.537Z,4.08
2019-05-01T11:00:24.096Z,3.27
2019-05-01T11:02:52.538Z,3.55
2019-05-01T11:05:20.938Z,3.10
2019-05-01T11:07:49.346Z,3.22
2019-05-01T11:10:17.902Z,3.33
2019-05-01T11:12:46.358Z,2.75
2019-05-01T11:15:16.107Z,3.33
2019-05-01T11:17:44.533Z,3.02
2019-05-01T11:20:13.322Z,3.05
2019-05-01T11:22:41.726Z,3.00
2019-05-01T11:25:11.061Z,3.30
2019-05-01T11:27:39.511Z,3.50
2019-05-01T11:30:08.394Z,3.22
2019-05-01T11:32:38.446Z,3.67
2019-05-01T11:35:09.266Z,3.52
2019-05-01T11:37:39.338Z,2.75
2019-05-01T11:40:10.010Z,3.47
2019-05-01T11:42:38.418Z,3.40
2019-05-01T11:45:09.226Z,4.00
2019-05-01T11:47:37.661Z,3.90
2019-05-01T11:50:06.938Z,4.85
2019-05-01T11:52:35.407Z,5.62
2019-05-01T11:55:04.569Z,4.12
2019-05-01T11:57:33.074Z,3.60
2019-05-01T12:00:01.477Z,5.15
2019-05-01T12:02:29.883Z,6.65
2019-05-01T12:04:58.335Z,4.83
2019-05-01T12:07:26.754Z,4.55
2019-05-01T12:09:55.186Z,4.00
2019-05-01T12:12:25.228Z,4.28
2019-05-01T12:14:53.681Z,4.30
2019-05-01T12:17:23.722Z,3.50
2019-05-01T12:19:52.150Z,3.80
2019-05-01T12:22:20.574Z,3.87
2019-05-01T12:24:48.998Z,4.35
2019-05-01T12:27:17.415Z,4.30
2019-05-01T12:29:45.831Z,3.92
2019-05-01T12:32:14.324Z,3.75
2019-05-01T12:34:42.799Z,4.75
2019-05-01T12:37:17.399Z,5.05
2019-05-01T12:39:46.182Z,4.67
2019-05-01T12:42:16.251Z,4.20
2019-05-01T12:44:44.906Z,4.30
2019-05-01T12:47:15.949Z,3.95
2019-05-01T12:49:45.995Z,4.40
2019-05-01T12:52:18.812Z,4.65
2019-05-01T12:54:51.743Z,4.47
2019-05-01T12:57:19.726Z,4.40
2019-05-01T12:59:48.136Z,5.12
2019-05-01T13:02:16.575Z,5.15
2019-05-01T13:04:45.867Z,5.15
2019-05-01T13:07:14.366Z,4.37
2019-05-01T13:09:42.760Z,4.33
2019-05-01T13:12:11.170Z,3.90
2019-05-01T13:14:39.582Z,3.87
2019-05-01T13:17:08.679Z,4.10
2019-05-01T13:19:37.098Z,3.80
2019-05-01T13:22:07.243Z,3.67
2019-05-01T13:24:37.351Z,4.87
2019-05-01T13:27:07.406Z,3.80
2019-05-01T13:29:37.491Z,3.98
2019-05-01T13:32:07.543Z,4.20
2019-05-01T13:34:36.059Z,5.08
2019-05-01T13:37:06.169Z,4.80
2019-05-01T13:39:34.570Z,3.55
2019-05-01T13:42:03.080Z,3.77
2019-05-01T13:44:31.470Z,4.05
2019-05-01T13:46:59.918Z,3.65
2019-05-01T13:49:28.334Z,3.40
2019-05-01T13:51:56.748Z,3.90
2019-05-01T13:54:25.203Z,3.52
2019-05-01T13:56:53.638Z,3.47
2019-05-01T13:59:22.064Z,3.12
2019-05-01T14:01:50.455Z,3.80
2019-05-01T14:04:21.642Z,3.12
2019-05-01T14:06:50.230Z,3.70
2019-05-01T14:09:20.386Z,4.00
2019-05-01T14:11:48.821Z,3.05
2019-05-01T14:14:17.242Z,2.98
2019-05-01T14:16:45.639Z,3.20
2019-05-01T14:19:14.052Z,3.30
2019-05-01T14:21:44.086Z,3.17
2019-05-01T14:24:14.142Z,3.42
2019-05-01T14:26:42.539Z,2.50
2019-05-01T14:29:10.961Z,2.83
2019-05-01T14:31:39.383Z,2.87
2019-05-01T14:34:07.806Z,2.90
2019-05-01T14:36:36.261Z,2.92
2019-05-01T14:39:06.973Z,2.92
2019-05-01T14:41:35.375Z,2.90
2019-05-01T14:44:04.733Z,2.95
2019-05-01T14:46:33.157Z,3.90
2019-05-01T14:49:01.754Z,3.45
2019-05-01T14:51:30.151Z,4.03
2019-05-01T14:53:58.559Z,3.60
2019-05-01T14:56:26.968Z,4.30
2019-05-01T14:58:55.391Z,4.05
2019-05-01T15:01:24.166Z,3.70
2019-05-01T15:03:52.619Z,3.77
2019-05-01T15:06:21.029Z,4.08
2019-05-01T15:08:51.890Z,3.55
2019-05-01T15:11:20.290Z,3.80
2019-05-01T15:13:50.363Z,4.17
2019-05-01T15:16:20.432Z,4.45
2019-05-01T15:18:50.540Z,3.27
2019-05-01T15:21:18.933Z,3.10
2019-05-01T15:23:53.565Z,3.47
2019-05-01T15:26:17.475Z,4.22
2019-05-01T15:28:46.292Z,4.58
2019-05-01T15:31:14.731Z,5.12
2019-05-01T15:33:43.131Z,3.80
2019-05-01T15:36:11.557Z,4.20
2019-05-01T15:38:39.991Z,3.40
2019-05-01T15:41:10.056Z,3.85
2019-05-01T15:43:40.151Z,3.60
2019-05-01T15:46:08.589Z,3.33
2019-05-01T15:48:37.020Z,4.50
2019-05-01T15:51:05.442Z,4.40
2019-05-01T15:53:33.860Z,4.03
2019-05-01T15:56:02.286Z,4.10
2019-05-01T15:58:30.717Z,3.70
2019-05-01T16:00:59.141Z,3.70
2019-05-01T16:03:27.552Z,4.50
2019-05-01T16:05:55.974Z,4.00
2019-05-01T16:08:24.380Z,4.00
2019-05-01T16:10:54.429Z,3.50
2019-05-01T16:13:22.915Z,4.45
2019-05-01T16:15:51.341Z,3.98
2019-05-01T16:18:19.762Z,3.62
2019-05-01T16:20:48.247Z,4.53
2019-05-01T16:23:16.674Z,4.30
2019-05-01T16:25:45.093Z,4.20
2019-05-01T16:28:13.512Z,4.87
2019-05-01T16:30:41.922Z,5.17
2019-05-01T16:33:10.324Z,4.60
2019-05-01T16:38:07.991Z,5.55
2019-05-01T16:40:38.031Z,5.20
2019-05-01T16:43:08.144Z,4.72
2019-05-01T16:45:36.582Z,4.00
2019-05-01T16:48:05.270Z,4.00
2019-05-01T16:50:34.075Z,4.00
2019-05-01T16:53:02.600Z,3.83
2019-05-01T16:55:31.011Z,4.30
2019-05-01T16:57:59.658Z,4.87
2019-05-01T17:00:32.433Z,4.40
2019-05-01T17:03:02.497Z,4.53
2019-05-01T17:05:32.538Z,4.53
2019-05-01T17:08:02.608Z,3.72
2019-05-01T17:10:32.662Z,3.95
2019-05-01T17:13:01.518Z,4.25
2019-05-01T17:15:31.666Z,4.92
2019-05-01T17:18:00.090Z,5.70
2019-05-01T17:20:28.570Z,5.87
2019-05-01T17:22:57.034Z,5.97
2019-05-01T17:25:25.522Z,5.58
2019-05-01T17:27:53.964Z,6.12
2019-05-01T17:30:27.162Z,6.25
2019-05-01T17:32:55.551Z,6.00
2019-05-01T17:35:24.127Z,5.75
2019-05-01T17:37:52.558Z,4.08
2019-05-01T17:40:20.978Z,4.75
2019-05-01T17:42:49.420Z,5.15
2019-05-01T17:45:17.909Z,6.12
2019-05-01T17:47:46.322Z,5.97
2019-05-01T17:50:16.475Z,6.05
2019-05-01T17:52:44.922Z,6.42
2019-05-01T17:55:13.499Z,5.53
2019-05-01T17:57:41.912Z,5.60
2019-05-01T18:00:12.312Z,5.60
2019-05-01T18:02:42.378Z,6.10
2019-05-01T18:05:12.550Z,6.55
2019-05-01T18:07:41.059Z,9.70
2019-05-01T18:10:12.554Z,9.05
2019-05-01T18:12:40.993Z,6.90
2019-05-01T18:15:09.450Z,6.45
2019-05-01T18:17:37.929Z,7.67
2019-05-01T18:20:07.098Z,6.83
2019-05-01T18:22:38.875Z,7.10
2019-05-01T18:25:09.531Z,7.25
2019-05-01T18:27:39.607Z,9.05
2019-05-01T18:30:09.843Z,8.63
2019-05-01T18:32:41.533Z,8.83
2019-05-01T18:35:14.323Z,9.30
2019-05-01T18:37:42.299Z,10.90
2019-05-01T18:40:12.702Z,10.53
2019-05-01T18:42:41.194Z,9.90
2019-05-01T18:45:14.346Z,10.40
2019-05-01T18:47:42.778Z,11.03
2019-05-01T18:50:13.535Z,10.20
2019-05-01T18:52:41.366Z,10.50
2019-05-01T18:55:09.867Z,10.25
2019-05-01T18:57:38.322Z,10.98
2019-05-01T19:00:06.935Z,11.33
2019-05-01T19:02:35.523Z,12.70
2019-05-01T19:05:08.816Z,12.00
2019-05-01T19:07:39.728Z,11.70
2019-05-01T19:10:08.398Z,11.15
2019-05-01T19:12:36.804Z,10.25
2019-05-01T19:15:06.904Z,10.75
2019-05-01T19:17:35.310Z,10.70
2019-05-01T19:20:06.653Z,10.63
2019-05-01T19:22:35.168Z,10.00
2019-05-01T19:25:04.128Z,10.93
2019-05-01T19:27:32.530Z,10.82
2019-05-01T19:30:00.959Z,9.60
2019-05-01T19:32:30.618Z,9.90
2019-05-01T19:34:59.061Z,10.13
2019-05-01T19:37:30.758Z,10.43
2019-05-01T19:39:57.718Z,10.65
2019-05-01T19:42:26.209Z,11.18
2019-05-01T19:44:56.369Z,10.88
2019-05-01T19:47:24.983Z,10.90
2019-05-01T19:49:54.664Z,11.20
2019-05-01T19:52:23.360Z,12.00
2019-05-01T19:54:51.832Z,12.65
2019-05-01T19:57:24.831Z,12.03
2019-05-01T19:59:53.344Z,12.07
2019-05-01T20:02:23.739Z,13.35
2019-05-01T20:04:52.404Z,13.68
2019-05-01T20:07:21.653Z,12.73
2019-05-01T20:09:56.636Z,12.98
2019-05-01T20:12:20.495Z,13.08
2019-05-01T20:14:48.924Z,13.93
2019-05-01T20:17:17.500Z,14.50
2019-05-01T20:19:45.914Z,15.93
2019-05-01T20:22:14.331Z,16.23
2019-05-01T20:24:44.182Z,15.70
2019-05-01T20:27:18.658Z,15.72
2019-05-01T20:29:47.070Z,15.85
2019-05-01T20:32:15.557Z,15.38
2019-05-01T20:34:48.002Z,15.72
2019-05-01T20:37:14.119Z,16.57
2019-05-01T20:39:42.543Z,16.60
2019-05-01T20:42:10.966Z,16.50
2019-05-01T20:44:39.487Z,16.80
2019-05-01T20:47:33.743Z,17.23
2019-05-01T20:49:46.454Z,16.85
2019-05-01T20:52:14.867Z,16.77
2019-05-01T20:54:43.519Z,16.97
2019-05-01T20:57:19.170Z,17.62
2019-05-01T20:59:43.710Z,17.02
2019-05-01T21:02:12.144Z,18.23
2019-05-01T21:04:42.213Z,17.77
2019-05-01T21:07:21.472Z,17.92
2019-05-01T21:09:57.290Z,20.23
2019-05-01T21:12:21.675Z,19.60
2019-05-01T21:14:51.087Z,19.82
2019-05-01T21:17:19.603Z,20.27
2019-05-01T21:19:48.042Z,20.57
2019-05-01T21:22:16.554Z,20.02
2019-05-01T21:24:44.947Z,20.52
2019-05-01T21:27:13.490Z,19.90
2019-05-01T21:29:41.932Z,20.35
2019-05-01T21:32:10.356Z,20.50
2019-05-01T21:34:38.766Z,20.32
2019-05-01T21:37:07.241Z,20.23
2019-05-01T21:39:35.712Z,20.55
2019-05-01T21:42:11.333Z,20.17
2019-05-01T21:44:34.582Z,20.23
2019-05-01T21:47:03.993Z,19.75
2019-05-01T21:49:33.309Z,18.35
2019-05-01T21:52:03.584Z,19.95
2019-05-01T21:54:32.116Z,20.12
2019-05-01T21:57:00.536Z,19.02
2019-05-01T21:59:28.978Z,18.98
2019-05-01T22:01:57.474Z,18.92
2019-05-01T22:04:27.808Z,18.32
2019-05-01T22:06:56.039Z,19.05
2019-05-01T22:09:25.866Z,17.65
2019-05-01T22:11:54.298Z,19.05
2019-05-01T22:14:24.348Z,18.70
2019-05-01T22:16:56.594Z,18.12
2019-05-01T22:19:25.094Z,18.80
2019-05-01T22:21:55.150Z,20.85
2019-05-01T22:24:25.205Z,19.80
2019-05-01T22:26:55.286Z,19.73
2019-05-01T22:29:27.181Z,21.48
2019-05-01T22:31:59.111Z,21.05
2019-05-01T22:34:29.218Z,21.60
2019-05-01T22:36:57.615Z,20.82
2019-05-01T22:39:28.921Z,21.07
2019-05-01T22:41:57.471Z,19.80
2019-05-01T22:44:25.880Z,21.73
2019-05-01T22:46:54.296Z,20.12
2019-05-01T22:49:22.702Z,20.90
2019-05-01T22:51:51.129Z,20.15
2019-05-01T22:54:19.546Z,21.33
2019-05-01T22:56:47.951Z,21.35
2019-05-01T22:59:16.354Z,20.20
2019-05-01T23:01:49.203Z,20.85
2019-05-01T23:04:17.250Z,20.75
2019-05-01T23:06:46.668Z,20.85
2019-05-01T23:09:16.794Z,20.75
2019-05-01T23:11:46.853Z,20.50
2019-05-01T23:14:15.831Z,22.00
2019-05-01T23:16:45.958Z,20.02
2019-05-01T23:19:14.430Z,20.00
2019-05-01T23:21:45.818Z,19.32
2019-05-01T23:24:13.013Z,19.60
2019-05-01T23:26:41.447Z,20.20
2019-05-01T23:29:10.055Z,20.50
2019-05-01T23:31:38.466Z,21.20
2019-05-01T23:34:06.879Z,20.17
2019-05-01T23:36:35.374Z,20.97
2019-05-01T23:39:05.285Z,20.90
2019-05-01T23:41:45.205Z,21.75
2019-05-01T23:44:05.422Z,20.15
2019-05-01T23:46:33.983Z,20.12
2019-05-01T23:49:02.394Z,20.97
2019-05-01T23:51:30.876Z,20.48
2019-05-01T23:53:59.293Z,20.20
2019-05-01T23:56:31.175Z,19.57
2019-05-01T23:58:57.892Z,20.02
